Aviation Digital Data Service (ADDS)

Output produced by METARs form (1125 UTC 23 August 2014)
found at http://aviationweather.gov/adds/metars/
 
KINT 230838Z 2309/2406 VRB03KT P6SM FEW035 BKN120 
     FM231500 07005KT P6SM VCSH SCT040 BKN250 
     PROB30 2318/2324 2SM TSRA BKN025CB